Time;durP1;ratioP1;P1;durP2;ratioP2;P2;SDS_P1;SDS_P2;PMS_P1;PMS_P2;Temp;Humidity;BMP_temperature;BMP_pressure;BME280_temperature;BME280_humidity;BME280_pressure;Samples;Min_cycle;Max_cycle;Signal;HPM_P1;HPM_P2
2021/11/09 00:00:34;;;;;;;11.07;5.67;;;;;;;7.03;100.00;101585.36;5346914;54;1138908;-81
2021/11/09 00:05:53;;;;;;;14.23;7.20;;;;;;;6.99;100.00;101585.14;5335580;54;1140995;-79
2021/11/09 00:10:57;;;;;;;12.43;7.00;;;;;;;6.99;100.00;101591.71;5330645;54;1138940;-81
2021/11/09 00:16:03;;;;;;;14.17;6.33;;;;;;;7.00;100.00;101597.83;5346470;54;1138886;-75
2021/11/09 00:21:09;;;;;;;14.53;8.83;;;;;;;6.93;100.00;101613.47;5346516;54;1138949;-78
2021/11/09 00:26:16;;;;;;;8.67;5.03;;;;;;;6.85;100.00;101612.98;5344743;54;1137145;-76
2021/11/09 00:31:23;;;;;;;16.07;6.50;;;;;;;6.76;99.87;101615.53;5347536;54;1136809;-77
2021/11/09 00:36:29;;;;;;;11.80;7.07;;;;;;;6.72;99.91;101628.91;5340645;54;1136868;-78
2021/11/09 00:41:35;;;;;;;13.47;7.33;;;;;;;6.74;100.00;101633.16;5340183;54;1136769;-85
2021/11/09 00:46:41;;;;;;;15.23;7.00;;;;;;;6.79;100.00;101632.50;5397197;54;1139204;-76
2021/11/09 00:51:47;;;;;;;18.60;8.07;;;;;;;6.79;100.00;101629.87;5386886;54;1138941;-80
2021/11/09 00:56:54;;;;;;;17.07;6.90;;;;;;;6.76;100.00;101639.66;5428797;54;1136988;-80
2021/11/09 01:02:00;;;;;;;14.97;6.43;;;;;;;6.66;99.84;101642.70;5401756;54;1139019;-80
2021/11/09 01:07:06;;;;;;;15.47;6.73;;;;;;;6.61;99.73;101649.92;5408973;54;1136956;-77
2021/11/09 01:12:12;;;;;;;12.50;6.20;;;;;;;6.58;99.60;101651.82;5430192;53;1136909;-77
2021/11/09 01:17:18;;;;;;;15.70;7.10;;;;;;;6.51;99.56;101660.91;5406538;54;1136937;-79
2021/11/09 01:22:24;;;;;;;12.53;7.17;;;;;;;6.45;99.75;101667.72;5397281;54;1134799;-81
2021/11/09 01:27:29;;;;;;;12.80;6.70;;;;;;;6.41;99.55;101674.05;5401810;54;1132808;-76
2021/11/09 01:32:36;;;;;;;13.47;5.93;;;;;;;6.29;98.63;101672.77;5401711;54;1135054;-80
2021/11/09 01:37:42;;;;;;;11.90;6.33;;;;;;;6.32;99.47;101671.33;5409467;54;1138931;-77
2021/11/09 01:42:48;;;;;;;14.63;6.42;;;;;;;6.39;99.80;101676.73;5395759;54;1138962;-81
2021/11/09 01:47:54;;;;;;;12.80;7.77;;;;;;;6.27;98.43;101677.22;5256820;56;1139088;-81
2021/11/09 01:53:01;;;;;;;12.97;5.97;;;;;;;6.06;98.62;101689.47;5252050;55;1136868;-82
2021/11/09 01:58:10;;;;;;;10.10;6.13;;;;;;;6.06;98.62;101689.47;5243195;55;1138931;-81
2021/11/09 02:03:18;;;;;;;14.10;5.70;;;;;;;5.89;97.87;101690.59;5240676;55;1139139;-77
2021/11/09 02:08:25;;;;;;;12.90;5.90;;;;;;;5.89;97.87;101690.59;5238316;55;1139060;-77
2021/11/09 02:13:31;;;;;;;11.43;6.63;;;;;;;5.91;98.57;101687.00;5219274;55;1139036;-78
2021/11/09 02:18:37;;;;;;;13.37;7.80;;;;;;;5.89;98.42;101681.41;5241152;55;1136884;-76
2021/11/09 02:23:46;;;;;;;10.70;6.17;;;;;;;5.86;98.53;101674.93;5238018;55;1136916;-83
2021/11/09 02:28:57;;;;;;;12.93;5.60;;;;;;;5.87;98.18;101687.14;5256576;55;1138872;-77
2021/11/09 02:34:03;;;;;;;13.27;6.57;;;;;;;5.89;97.92;101687.52;5248097;56;1138961;-80
2021/11/09 02:39:10;;;;;;;10.90;5.50;;;;;;;5.87;97.58;101691.08;5245363;56;1138956;-78
2021/11/09 02:44:18;;;;;;;18.00;7.30;;;;;;;5.76;97.27;101695.45;5345007;54;1136825;-79
2021/11/09 02:49:32;;;;;;;11.30;5.80;;;;;;;5.59;96.43;101717.55;5405911;54;1136932;-75
2021/11/09 02:54:36;;;;;;;28.73;11.47;;;;;;;5.38;95.89;101734.07;5424773;54;1136907;-83
2021/11/09 03:04:59;;;;;;;31.43;13.37;;;;;;;4.85;95.25;101753.44;5424635;54;1141158;-80
2021/11/09 03:10:16;;;;;;;33.53;11.03;;;;;;;4.91;96.72;101755.83;5428224;54;1141034;-78
2021/11/09 03:15:22;;;;;;;33.00;12.87;;;;;;;5.00;97.20;101764.30;5390778;54;1138849;-83
2021/11/09 03:20:35;;;;;;;19.17;10.23;;;;;;;5.04;97.49;101769.36;5306517;54;1139164;-78
2021/11/09 03:47:16;;;;;;;15.98;8.78;;;;;;;5.14;97.50;101789.59;5416504;54;1134824;-84
2021/11/09 03:52:27;;;;;;;12.67;6.67;;;;;;;5.11;96.90;101799.72;5396644;54;1134813;-80
2021/11/09 03:57:37;;;;;;;12.37;6.75;;;;;;;5.08;96.64;101810.31;5425431;53;1137108;-81
2021/11/09 04:03:00;;;;;;;14.27;7.97;;;;;;;5.05;96.64;101809.55;5353559;54;1136950;-82
2021/11/09 04:18:48;;;;;;;21.50;8.90;;;;;;;4.95;96.52;101833.92;5272044;54;1136854;-77
2021/11/09 05:11:39;;;;;;;21.57;9.00;;;;;;;4.81;97.67;101863.21;5336832;54;1139021;-77
2021/11/09 05:16:45;;;;;;;28.47;13.60;;;;;;;4.79;97.63;101881.20;5347069;54;1139007;-78
2021/11/09 05:21:51;;;;;;;19.90;10.40;;;;;;;4.84;97.71;101873.60;5346086;54;1138968;-78
2021/11/09 05:26:57;;;;;;;24.07;11.47;;;;;;;4.75;97.45;101893.98;5342265;54;1136909;-78
2021/11/09 05:32:03;;;;;;;22.70;9.83;;;;;;;4.69;97.80;101900.75;5331811;55;1136891;-81
2021/11/09 05:37:11;;;;;;;22.00;10.03;;;;;;;4.56;97.46;101902.44;5342117;55;1134911;-80
2021/11/09 05:42:16;;;;;;;21.13;9.00;;;;;;;4.62;97.77;101920.17;5344786;54;1138915;-75
2021/11/09 05:47:22;;;;;;;20.47;7.87;;;;;;;4.56;97.60;101935.64;5337733;54;1136880;-79
2021/11/09 05:52:28;;;;;;;13.17;7.93;;;;;;;4.57;97.66;101938.67;5341338;54;1136843;-76
2021/11/09 05:57:34;;;;;;;26.27;8.53;;;;;;;4.56;97.98;101945.67;5345205;54;1134821;-78
2021/11/09 06:02:40;;;;;;;21.80;9.73;;;;;;;4.47;97.43;101964.27;5348655;54;1134806;-78
2021/11/09 06:07:46;;;;;;;13.83;7.20;;;;;;;4.36;97.71;101963.73;5398001;54;1134830;-80
2021/11/09 06:12:52;;;;;;;11.57;7.17;;;;;;;4.39;97.63;101964.09;5283702;54;1134954;-77
2021/11/09 06:17:58;;;;;;;15.23;9.37;;;;;;;4.43;97.79;101981.45;5336498;54;1136878;-76
2021/11/09 06:23:03;;;;;;;22.83;10.37;;;;;;;4.52;98.49;101983.34;5346331;54;1136754;-79
2021/11/09 06:28:09;;;;;;;23.03;13.20;;;;;;;4.61;98.60;101988.75;5340596;54;1136225;-78
2021/11/09 06:33:16;;;;;;;21.17;12.60;;;;;;;4.60;98.02;102004.92;5344610;54;1136917;-77
2021/11/09 06:38:22;;;;;;;27.67;13.60;;;;;;;4.56;97.69;102009.87;5331520;54;1136896;-78
2021/11/09 06:43:28;;;;;;;29.90;15.90;;;;;;;4.50;97.24;102011.34;5359755;54;1136921;-79
2021/11/09 06:48:34;;;;;;;56.47;27.63;;;;;;;4.48;96.99;102021.00;5292560;54;1137388;-80
2021/11/09 06:53:40;;;;;;;46.93;23.67;;;;;;;4.45;97.13;102035.94;5327939;54;1134748;-77
2021/11/09 06:58:46;;;;;;;37.67;18.07;;;;;;;4.50;98.11;102044.53;5291578;54;1257727;-76
2021/11/09 07:03:51;;;;;;;30.23;17.20;;;;;;;4.60;98.00;102050.77;5279726;55;1141059;-77
2021/11/09 07:08:57;;;;;;;49.97;28.03;;;;;;;4.66;98.06;102050.20;5327008;54;1141037;-79
2021/11/09 07:14:04;;;;;;;32.90;15.30;;;;;;;4.79;99.18;102055.49;5252029;55;1138950;-78
2021/11/09 07:19:10;;;;;;;27.43;14.00;;;;;;;4.95;99.44;102069.88;5288135;54;1138333;-75
2021/11/09 07:24:16;;;;;;;29.90;16.30;;;;;;;5.22;99.92;102090.47;5151195;55;1141143;-78
2021/11/09 07:29:22;;;;;;;25.23;12.00;;;;;;;5.54;100.00;102096.90;5173938;56;1141044;-79
2021/11/09 07:34:28;;;;;;;20.32;10.58;;;;;;;5.89;100.00;102103.69;5323512;55;1143205;-78
2021/11/09 07:39:35;;;;;;;17.73;9.50;;;;;;;6.19;100.00;102103.56;5228964;56;1140981;-78
2021/11/09 07:44:41;;;;;;;25.90;10.30;;;;;;;6.47;100.00;102113.52;5173149;56;1140585;-78
2021/11/09 07:49:47;;;;;;;18.17;11.30;;;;;;;6.72;99.72;102125.36;5243121;56;1143128;-77
2021/11/09 07:54:59;;;;;;;19.03;11.00;;;;;;;6.88;99.30;102133.52;5232254;55;1141027;-81
2021/11/09 08:00:09;;;;;;;23.73;13.27;;;;;;;6.95;97.39;102133.70;5243288;55;1141032;-77
2021/11/09 08:05:10;;;;;;;21.20;11.53;;;;;;;7.06;97.85;102136.80;5270912;55;1141045;-77
2021/11/09 08:10:16;;;;;;;37.27;14.30;;;;;;;7.23;97.98;102138.80;5319747;55;1141207;-77
2021/11/09 08:15:21;;;;;;;23.50;10.77;;;;;;;7.36;97.78;102144.84;5320169;55;1141097;-77
2021/11/09 08:20:27;;;;;;;22.93;10.97;;;;;;;7.39;96.83;102149.14;5203570;56;1141474;-78
2021/11/09 08:25:33;;;;;;;22.23;12.37;;;;;;;7.52;97.03;102133.73;5322405;55;1141335;-78
2021/11/09 08:30:38;;;;;;;20.47;11.33;;;;;;;7.71;97.70;102145.25;5200305;55;1141063;-81
2021/11/09 08:35:44;;;;;;;23.93;12.13;;;;;;;7.85;95.53;102148.20;5333617;54;1141364;-74
2021/11/09 08:40:53;;;;;;;22.33;12.13;;;;;;;7.82;95.53;102152.72;5330649;55;1141136;-77
2021/11/09 08:46:02;;;;;;;24.47;13.30;;;;;;;7.89;95.88;102151.11;5296333;54;1141090;-79
2021/11/09 08:51:11;;;;;;;34.10;15.77;;;;;;;7.98;95.15;102149.41;5280764;55;1141040;-77
2021/11/09 08:56:35;;;;;;;23.43;14.23;;;;;;;8.06;95.41;102152.61;5264306;54;1140421;-79
2021/11/09 09:06:50;;;;;;;18.57;10.20;;;;;;;8.04;95.72;102172.02;5261488;55;1141221;-85
2021/11/09 09:11:57;;;;;;;16.70;11.00;;;;;;;8.12;95.50;102172.55;5254370;55;1141091;-84
2021/11/09 09:17:03;;;;;;;19.87;12.07;;;;;;;7.97;94.98;102186.35;5193747;56;1141037;-84
2021/11/09 09:22:12;;;;;;;19.83;12.90;;;;;;;7.81;95.13;102193.14;5244111;55;1140999;-85
2021/11/09 09:27:27;;;;;;;21.17;12.07;;;;;;;7.62;95.10;102196.52;5181455;56;1141107;-84
2021/11/09 09:54:08;;;;;;;49.53;25.90;;;;;;;7.92;97.06;102190.97;5299740;54;1138940;-89
2021/11/09 09:59:12;;;;;;;27.50;15.60;;;;;;;7.95;96.45;102198.27;5323582;55;1138926;-85
2021/11/09 10:04:36;;;;;;;16.53;12.43;;;;;;;7.97;96.80;102199.52;5331242;55;1136191;-85
2021/11/09 10:09:47;;;;;;;22.60;16.70;;;;;;;7.98;96.83;102202.56;5239450;56;1140919;-86
2021/11/09 10:14:56;;;;;;;23.13;14.93;;;;;;;7.97;96.85;102196.43;5184993;56;1140989;-86
2021/11/09 10:20:18;;;;;;;21.67;12.80;;;;;;;8.02;96.91;102191.84;5195850;56;1141214;-86
2021/11/09 10:25:25;;;;;;;22.65;14.13;;;;;;;8.11;97.61;102185.33;5080563;57;1141062;-88
2021/11/09 10:30:42;;;;;;;19.57;12.00;;;;;;;8.21;97.60;102197.69;5081810;58;1141024;-85
2021/11/09 10:35:48;;;;;;;22.37;14.13;;;;;;;8.16;97.16;102189.97;5095509;57;1140346;-85
2021/11/09 10:40:54;;;;;;;18.53;11.70;;;;;;;8.18;97.59;102188.59;5246001;55;1141131;-84
2021/11/09 10:46:00;;;;;;;23.37;13.43;;;;;;;8.19;97.87;102190.30;5155953;56;1141136;-84
2021/11/09 10:51:06;;;;;;;14.87;9.77;;;;;;;8.21;97.59;102199.02;5184440;55;1140997;-84
2021/11/09 11:06:47;;;;;;;20.97;15.83;;;;;;;8.06;98.06;102213.67;5113988;56;1140338;-83
2021/11/09 11:11:59;;;;;;;28.60;16.13;;;;;;;8.03;98.15;102213.78;5059725;56;1141075;-80
2021/11/09 11:17:10;;;;;;;22.83;15.53;;;;;;;8.01;98.45;102213.84;5067458;57;1141179;-80
2021/11/09 11:22:20;;;;;;;165.30;102.27;;;;;;;8.03;98.77;102210.69;5124120;56;1140611;-86
2021/11/09 11:27:35;;;;;;;23.00;16.23;;;;;;;8.09;99.07;102206.50;5019134;56;1145280;-85
2021/11/09 11:32:36;;;;;;;27.10;17.37;;;;;;;8.14;99.09;102207.61;5069340;57;1141039;-86
2021/11/09 11:37:41;;;;;;;28.33;18.57;;;;;;;8.16;98.93;102210.19;5122776;56;1141068;-87
2021/11/09 11:42:47;;;;;;;28.90;19.00;;;;;;;8.17;98.96;102210.13;5106078;57;1140984;-89
2021/11/09 11:48:09;;;;;;;27.03;17.90;;;;;;;8.14;99.06;102211.56;5173244;56;1141015;-86
2021/11/09 11:53:15;;;;;;;39.60;24.50;;;;;;;8.17;99.56;102218.50;5159636;56;1139178;-86
2021/11/09 11:58:21;;;;;;;28.50;19.03;;;;;;;8.22;99.48;102217.86;5086929;57;1139168;-86
2021/11/09 12:03:32;;;;;;;39.47;26.33;;;;;;;8.26;99.64;102219.42;5135899;56;1139082;-87
2021/11/09 12:08:42;;;;;;;44.13;27.43;;;;;;;8.22;99.64;102235.85;5131753;56;1139076;-84
2021/11/09 12:14:01;;;;;;;30.43;22.17;;;;;;;8.22;99.71;102227.95;5166588;56;1138943;-83
2021/11/09 12:19:07;;;;;;;28.80;19.63;;;;;;;8.23;99.84;102231.44;5129382;56;1139280;-83
2021/11/09 12:24:21;;;;;;;44.80;28.07;;;;;;;8.26;99.86;102229.97;5212946;55;1139068;-84
2021/11/09 12:29:45;;;;;;;34.00;20.93;;;;;;;8.25;100.00;102229.61;5222113;55;1138924;-83
2021/11/09 12:35:12;;;;;;;28.20;17.70;;;;;;;8.23;99.94;102230.13;5211260;55;1139381;-84
2021/11/09 12:40:32;;;;;;;32.78;20.72;;;;;;;8.20;100.00;102227.60;5211629;55;1141418;-83
2021/11/09 12:45:42;;;;;;;24.77;15.67;;;;;;;8.15;100.00;102226.46;5156319;56;1143403;-84
2021/11/09 12:50:55;;;;;;;31.90;22.23;;;;;;;8.10;100.00;102225.31;5136413;56;1143091;-84
2021/11/09 12:56:06;;;;;;;;;;;;;;;8.07;100.00;102221.97;5142161;56;1142984;-84
2021/11/09 13:01:24;;;;;;;39.90;22.67;;;;;;;8.04;100.00;102226.91;5196285;56;976374;-84
2021/11/09 13:06:49;;;;;;;34.60;22.13;;;;;;;8.05;100.00;102221.17;5190722;56;1141229;-85
2021/11/09 13:12:02;;;;;;;44.27;23.83;;;;;;;8.06;100.00;102218.94;5163176;56;1143039;-87
2021/11/09 13:17:28;;;;;;;36.03;21.63;;;;;;;8.08;100.00;102210.52;5139185;57;1143166;-87
2021/11/09 13:22:33;;;;;;;33.73;20.70;;;;;;;8.13;100.00;102214.66;5234612;55;1143132;-87
2021/11/09 13:27:48;;;;;;;47.15;27.22;;;;;;;8.22;100.00;102208.63;5173912;56;1143259;-89
2021/11/09 13:32:57;;;;;;;34.67;19.93;;;;;;;8.27;100.00;102206.19;5079500;56;1143105;-88
2021/11/09 13:38:22;;;;;;;37.23;20.27;;;;;;;8.29;100.00;102194.27;5117570;56;1143072;-87
2021/11/09 13:43:34;;;;;;;46.33;27.60;;;;;;;8.29;100.00;102194.27;5184368;55;1143255;-87
2021/11/09 13:48:43;;;;;;;42.20;23.03;;;;;;;8.27;100.00;102187.73;5195455;56;1141112;-88
2021/11/09 13:53:53;;;;;;;44.67;25.93;;;;;;;8.36;100.00;102197.09;5215713;55;1141070;-87
2021/11/09 13:59:08;;;;;;;42.05;26.12;;;;;;;8.39;100.00;102199.61;5173987;56;1141031;-87
2021/11/09 14:10:18;;;;;;;76.73;43.63;;;;;;;8.33;100.00;102198.07;5144347;57;1141047;-85
2021/11/09 14:15:27;;;;;;;65.37;38.67;;;;;;;8.39;100.00;102193.88;5243955;56;1139332;-85
2021/11/09 14:20:29;;;;;;;58.23;33.50;;;;;;;8.46;100.00;102188.73;5250441;55;1143055;-85
2021/11/09 14:25:35;;;;;;;63.43;41.73;;;;;;;8.49;100.00;102185.56;5173231;56;1143067;-84
2021/11/09 14:30:41;;;;;;;41.80;25.53;;;;;;;8.49;100.00;102186.42;5076478;57;1143279;-84
2021/11/09 14:35:53;;;;;;;58.63;38.33;;;;;;;8.51;100.00;102185.91;5075146;57;1143423;-84
2021/11/09 14:40:58;;;;;;;72.30;47.33;;;;;;;8.53;100.00;102194.61;5071610;57;1143155;-84
2021/11/09 14:46:24;;;;;;;60.60;39.83;;;;;;;8.48;100.00;102188.66;5145866;56;1143089;-84
2021/11/09 14:56:35;;;;;;;56.33;31.10;;;;;;;8.47;100.00;102192.22;5341800;55;1143171;-85
2021/11/09 15:02:02;;;;;;;47.10;28.13;;;;;;;8.50;100.00;102182.02;5289809;55;1143141;-85
2021/11/09 15:07:25;;;;;;;164.07;65.23;;;;;;;8.51;100.00;102181.95;5234671;55;1143066;-85
2021/11/09 15:29:05;;;;;;;;;;;;;;;8.47;100.00;102189.59;5149096;56;1143413;-85
2021/11/09 15:33:52;;;;;;;118.33;68.07;;;;;;;8.45;100.00;102191.42;5199437;56;976315;-85
2021/11/09 15:38:57;;;;;;;104.67;52.80;;;;;;;8.46;100.00;102183.91;5139698;57;1140924;-85
2021/11/09 15:44:02;;;;;;;90.40;42.13;;;;;;;8.44;100.00;102186.61;5137179;57;1143117;-85
2021/11/09 15:49:09;;;;;;;57.20;36.37;;;;;;;8.45;100.00;102184.83;5139213;56;1141107;-89
2021/11/09 15:54:15;;;;;;;77.30;39.97;;;;;;;8.41;100.00;102177.96;5015443;57;1140960;-90
2021/11/09 15:59:21;;;;;;;48.53;26.77;;;;;;;8.42;100.00;102189.77;5076789;58;1141053;-87
2021/11/09 16:04:38;;;;;;;47.57;31.10;;;;;;;8.40;100.00;102191.61;5082306;58;1141199;-86
2021/11/09 16:09:45;;;;;;;54.27;31.15;;;;;;;8.40;100.00;102186.33;5190230;56;1141040;-86
2021/11/09 16:14:49;;;;;;;102.37;47.07;;;;;;;8.42;100.00;102196.81;5181509;56;1141428;-88
2021/11/09 16:19:55;;;;;;;44.23;24.33;;;;;;;8.41;100.00;102194.64;5128791;56;1142464;-86
2021/11/09 16:25:02;;;;;;;41.30;25.90;;;;;;;8.38;100.00;102201.84;5153981;56;1141262;-88
2021/11/09 16:30:16;;;;;;;45.03;28.17;;;;;;;8.37;100.00;102202.30;5215598;56;1141041;-89
2021/11/09 16:35:33;;;;;;;118.07;59.23;;;;;;;8.40;100.00;102207.92;5144048;57;1141042;-80
2021/11/09 16:40:40;;;;;;;102.73;47.60;;;;;;;8.42;100.00;102208.69;5239744;55;1141092;-81
2021/11/09 16:52:32;;;;;;;80.90;37.67;;;;;;;8.41;100.00;102214.88;5185009;55;1139220;-85
2021/11/09 16:56:36;;;;;;;;;;;;;;;8.40;100.00;102215.83;5166609;56;1143578;-88
2021/11/09 17:01:41;;;;;;;66.20;36.17;;;;;;;8.42;100.00;102220.55;5182412;56;976182;-87
2021/11/09 18:16:32;;;;;;;84.80;46.27;;;;;;;7.89;100.00;102242.00;5174318;56;1143053;-77
2021/11/09 18:21:31;;;;;;;93.07;48.73;;;;;;;7.87;100.00;102249.55;5157086;55;1143062;-77
2021/11/09 18:26:37;;;;;;;73.43;42.53;;;;;;;7.83;100.00;102243.53;5229023;55;1143160;-83
2021/11/09 18:31:43;;;;;;;126.33;52.40;;;;;;;7.79;100.00;102244.59;5211251;56;1143179;-81
2021/11/09 18:36:49;;;;;;;163.90;78.13;;;;;;;7.74;100.00;102246.54;5225779;55;1145473;-76
2021/11/09 18:41:56;;;;;;;202.15;95.77;;;;;;;7.72;100.00;102240.01;5260589;55;1145278;-79
2021/11/09 18:47:03;;;;;;;97.33;47.17;;;;;;;7.73;100.00;102248.77;5142417;56;1145233;-82
2021/11/09 18:52:10;;;;;;;74.27;37.58;;;;;;;7.67;100.00;102242.41;5155249;56;1143181;-80
2021/11/09 18:57:16;;;;;;;107.13;48.03;;;;;;;7.57;100.00;102235.33;5213743;55;1143134;-80
2021/11/09 19:02:23;;;;;;;133.67;66.67;;;;;;;7.54;100.00;102236.75;5132994;56;1145283;-77
2021/11/09 19:07:30;;;;;;;86.37;42.97;;;;;;;7.56;100.00;102241.50;5058851;58;1145527;-78
2021/11/09 19:12:37;;;;;;;64.57;30.93;;;;;;;7.60;100.00;102248.84;5111668;55;1143474;-78
2021/11/09 19:17:45;;;;;;;66.63;33.30;;;;;;;7.52;100.00;102241.20;5218401;56;1143398;-86
2021/11/09 19:22:53;;;;;;;84.33;41.70;;;;;;;7.52;100.00;102241.20;5188279;55;1143242;-80
2021/11/09 19:27:59;;;;;;;74.30;36.20;;;;;;;7.51;100.00;102249.16;5129837;56;1143175;-80
2021/11/09 19:33:05;;;;;;;86.07;40.67;;;;;;;7.45;100.00;102243.69;5243217;55;1143179;-79
2021/11/09 19:38:11;;;;;;;67.40;35.00;;;;;;;7.44;100.00;102246.38;5306714;55;1143393;-78
2021/11/09 19:43:17;;;;;;;56.10;32.07;;;;;;;7.44;100.00;102245.05;5252326;55;1143412;-76
2021/11/09 19:48:26;;;;;;;63.83;33.53;;;;;;;7.41;100.00;102253.47;5274059;55;1143437;-79
2021/11/09 19:53:33;;;;;;;37.60;20.47;;;;;;;7.38;100.00;102255.34;5198320;56;1143571;-80
2021/11/09 19:58:40;;;;;;;59.17;30.77;;;;;;;7.37;100.00;102257.56;5157381;55;1143355;-80
2021/11/09 20:03:47;;;;;;;40.77;21.43;;;;;;;7.33;100.00;102256.81;5227228;55;1143339;-80
2021/11/09 20:08:59;;;;;;;51.53;29.63;;;;;;;7.25;100.00;102260.66;5174905;56;1143161;-77
2021/11/09 20:14:07;;;;;;;52.97;27.10;;;;;;;7.16;100.00;102257.91;5096697;56;1143352;-79
2021/11/09 20:19:11;;;;;;;51.30;29.17;;;;;;;7.10;100.00;102256.80;5120458;56;1143088;-80
2021/11/09 20:24:17;;;;;;;59.10;30.87;;;;;;;7.04;100.00;102255.69;5132193;57;1143357;-78
2021/11/09 20:29:26;;;;;;;52.83;27.77;;;;;;;7.02;100.00;102258.86;5099890;57;1143036;-80
2021/11/09 20:34:33;;;;;;;58.70;30.90;;;;;;;6.95;100.00;102250.76;5142887;56;1143152;-79
2021/11/09 20:39:38;;;;;;;46.33;27.13;;;;;;;6.92;100.00;102253.03;5123099;56;1143099;-79
2021/11/09 20:44:44;;;;;;;45.47;26.83;;;;;;;6.93;100.00;102244.69;5163116;56;1143157;-81
2021/11/09 20:49:51;;;;;;;39.67;24.33;;;;;;;6.91;100.00;102244.73;5060167;57;1143300;-78
2021/11/09 20:54:57;;;;;;;47.07;28.43;;;;;;;6.91;100.00;102243.42;5128697;57;1141113;-80
2021/11/09 21:00:08;;;;;;;49.33;25.97;;;;;;;6.88;100.00;102238.72;5111647;56;1141094;-78
2021/11/09 21:05:15;;;;;;;51.13;25.83;;;;;;;6.87;100.00;102245.78;5194388;56;1141091;-79
2021/11/09 21:10:21;;;;;;;51.43;26.57;;;;;;;6.85;100.00;102243.66;5348532;53;1141189;-78
2021/11/09 21:21:02;;;;;;;54.93;29.60;;;;;;;6.92;100.00;102232.45;5146055;55;1141296;-77
2021/11/09 21:26:08;;;;;;;53.57;29.73;;;;;;;6.95;100.00;102238.92;5132742;57;1141193;-79
2021/11/09 21:36:36;;;;;;;57.13;28.20;;;;;;;6.90;100.00;102239.53;5123847;56;1136965;-80
2021/11/09 21:41:44;;;;;;;60.43;28.33;;;;;;;6.87;100.00;102232.63;5144453;57;1139297;-80
2021/11/09 21:46:52;;;;;;;51.40;26.63;;;;;;;6.87;100.00;102221.25;5105621;56;1143087;-78
2021/11/09 21:51:58;;;;;;;47.77;26.53;;;;;;;6.90;100.00;102213.23;5136457;56;1143121;-84
2021/11/09 21:57:04;;;;;;;58.37;29.47;;;;;;;6.86;100.00;102205.06;5172647;56;1143245;-84
2021/11/09 22:02:10;;;;;;;71.33;33.00;;;;;;;6.83;100.00;102195.97;5144202;57;1143078;-85
2021/11/09 22:07:16;;;;;;;64.07;30.90;;;;;;;6.83;100.00;102183.67;5164867;56;1143652;-83
2021/11/09 22:12:21;;;;;;;66.90;31.00;;;;;;;6.86;100.00;102188.83;5171633;56;1143244;-85
2021/11/09 22:17:27;;;;;;;50.13;26.80;;;;;;;6.89;100.00;102188.70;5235036;55;1143098;-83
2021/11/09 22:22:34;;;;;;;83.27;36.70;;;;;;;6.90;100.00;102181.20;5226573;55;1143316;-84
2021/11/09 22:27:40;;;;;;;41.73;23.37;;;;;;;6.90;100.00;102172.46;5256368;55;1143329;-83
2021/11/09 22:32:47;;;;;;;41.13;22.17;;;;;;;6.88;100.00;102166.39;5230115;56;1143114;-84
2021/11/09 22:37:53;;;;;;;57.10;29.90;;;;;;;6.81;100.00;102157.02;5231685;56;1143135;-84
2021/11/09 22:43:00;;;;;;;51.83;28.73;;;;;;;6.73;100.00;102147.22;5153382;56;1143069;-84
2021/11/09 22:48:06;;;;;;;38.17;20.90;;;;;;;6.58;100.00;102132.84;5163826;57;1143155;-84
2021/11/09 22:53:12;;;;;;;90.60;39.00;;;;;;;6.58;100.00;102132.84;5186536;56;1143079;-84
2021/11/09 22:58:18;;;;;;;98.30;42.87;;;;;;;6.53;100.00;102132.17;5203232;55;1143336;-85
2021/11/09 23:03:23;;;;;;;99.87;43.50;;;;;;;6.44;100.00;102124.13;5264648;55;1143059;-85
2021/11/09 23:08:29;;;;;;;59.50;29.37;;;;;;;6.33;100.00;102115.31;5244471;55;1141046;-86
2021/11/09 23:13:36;;;;;;;53.63;28.27;;;;;;;6.25;100.00;102114.73;5172954;55;1143085;-86
2021/11/09 23:18:41;;;;;;;47.73;26.57;;;;;;;6.19;100.00;102115.39;5151780;56;1143324;-83
2021/11/09 23:23:47;;;;;;;50.80;28.40;;;;;;;6.16;100.00;102108.91;5159777;56;1143057;-84
2021/11/09 23:28:53;;;;;;;59.93;27.70;;;;;;;6.10;100.00;102106.06;5170475;56;1143183;-84
2021/11/09 23:34:00;;;;;;;45.27;23.63;;;;;;;6.15;100.00;102109.82;5132706;57;1143089;-85
2021/11/09 23:39:06;;;;;;;45.47;24.63;;;;;;;6.18;100.00;102093.97;5217950;56;1143209;-84
2021/11/09 23:44:12;;;;;;;62.80;31.63;;;;;;;6.15;100.00;102096.23;5234866;56;1143115;-85
2021/11/09 23:49:18;;;;;;;46.43;25.13;;;;;;;6.09;100.00;102099.09;5190153;56;1141089;-86
2021/11/09 23:54:25;;;;;;;43.40;24.00;;;;;;;6.04;100.00;102101.00;5191533;55;1143150;-85
2021/11/09 23:59:31;;;;;;;44.23;24.13;;;;;;;6.00;100.00;102102.86;5220696;55;1143195;-85
